Time;durP1;ratioP1;P1;durP2;ratioP2;P2;SDS_P1;SDS_P2;PMS_P1;PMS_P2;Temp;Humidity;BMP_temperature;BMP_pressure;BME280_temperature;BME280_humidity;BME280_pressure;Samples;Min_cycle;Max_cycle;Signal;HPM_P1;HPM_P2
2024/04/20 00:01:44;;;;;;;11.40;7.60;;;;;;;9.89;100.00;99674.34;5485157;26;19998;-74
2024/04/20 00:04:09;;;;;;;9.88;7.03;;;;;;;9.65;100.00;99638.47;5486623;26;20013;-74
2024/04/20 00:06:36;;;;;;;11.48;7.35;;;;;;;9.59;100.00;99640.88;5485689;26;19998;-74
2024/04/20 00:09:01;;;;;;;9.80;7.28;;;;;;;9.72;100.00;99661.03;5486146;26;19995;-75
2024/04/20 00:11:27;;;;;;;10.20;7.35;;;;;;;9.69;100.00;99650.59;5485874;26;19994;-72
2024/04/20 00:13:54;;;;;;;9.68;7.28;;;;;;;9.40;100.00;99614.63;5486730;26;19994;-68
2024/04/20 00:16:20;;;;;;;8.88;6.78;;;;;;;9.73;100.00;99652.44;5484397;26;20016;-70
2024/04/20 00:18:45;;;;;;;9.65;6.80;;;;;;;9.74;100.00;99636.13;5481879;26;20069;-73
2024/04/20 00:21:11;;;;;;;8.88;6.28;;;;;;;9.76;100.00;99633.59;5486182;26;20013;-70
2024/04/20 00:23:36;;;;;;;10.48;6.63;;;;;;;9.72;100.00;99609.47;5486350;26;20017;-72
2024/04/20 00:26:06;;;;;;;9.88;6.90;;;;;;;9.73;100.00;99603.47;5486013;26;20089;-73
2024/04/20 00:28:32;;;;;;;8.85;5.55;;;;;;;9.74;100.00;99623.25;5485847;26;20026;-69
2024/04/20 00:30:58;;;;;;;8.65;6.32;;;;;;;9.79;100.00;99633.69;5486413;26;20010;-71
2024/04/20 00:33:24;;;;;;;8.25;5.97;;;;;;;9.66;100.00;99604.16;5486381;26;19998;-69
2024/04/20 00:35:50;;;;;;;8.25;5.72;;;;;;;9.84;100.00;99611.47;5488442;26;20008;-69
2024/04/20 00:38:15;;;;;;;9.88;6.60;;;;;;;9.58;100.00;99534.34;5488990;26;19998;-70
2024/04/20 00:40:41;;;;;;;7.28;5.43;;;;;;;10.01;100.00;99591.28;5456602;26;20002;-72
2024/04/20 00:43:16;;;;;;;11.27;6.35;;;;;;;9.61;100.00;99538.69;5489620;26;19994;-71
2024/04/20 00:45:43;;;;;;;7.93;5.22;;;;;;;10.14;100.00;99618.25;5489854;26;20092;-71
2024/04/20 00:48:08;;;;;;;7.85;5.43;;;;;;;10.24;100.00;99606.47;5489433;26;19994;-72
2024/04/20 00:50:36;;;;;;;9.35;5.50;;;;;;;10.13;100.00;99582.97;5489870;26;20336;-71
2024/04/20 00:53:02;;;;;;;7.43;5.13;;;;;;;9.83;100.00;99535.88;5489008;26;20070;-71
2024/04/20 00:55:30;;;;;;;7.38;5.13;;;;;;;9.97;100.00;99585.19;5489430;26;20008;-73
2024/04/20 00:57:57;;;;;;;8.50;5.57;;;;;;;10.00;100.00;99599.84;5489711;26;20330;-76
2024/04/20 01:00:24;;;;;;;6.50;4.80;;;;;;;10.05;100.00;99608.56;5490043;26;19998;-70
2024/04/20 01:02:50;;;;;;;8.00;4.85;;;;;;;10.07;100.00;99621.50;5486559;26;19998;-70
2024/04/20 01:05:18;;;;;;;7.30;5.38;;;;;;;10.15;100.00;99605.38;5489577;26;20022;-72
2024/04/20 01:07:44;;;;;;;6.70;4.95;;;;;;;10.10;100.00;99598.38;5489344;26;20004;-70
2024/04/20 01:10:09;;;;;;;8.02;5.43;;;;;;;9.94;100.00;99561.03;5488775;26;19998;-71
2024/04/20 01:12:35;;;;;;;7.20;5.63;;;;;;;10.27;100.00;99593.63;5488919;26;19998;-72
2024/04/20 01:15:02;;;;;;;10.75;5.35;;;;;;;10.25;100.00;99592.72;5488833;26;20005;-69
2024/04/20 01:17:29;;;;;;;6.50;4.82;;;;;;;10.20;100.00;99584.88;5482446;26;20081;-76
2024/04/20 01:19:56;;;;;;;6.90;4.60;;;;;;;10.15;100.00;99574.44;5489205;26;20002;-73
2024/04/20 01:22:22;;;;;;;5.88;4.60;;;;;;;10.20;100.00;99584.88;5489237;26;19998;-73
2024/04/20 01:24:48;;;;;;;6.60;5.28;;;;;;;10.15;100.00;99568.41;5489235;26;20009;-73
2024/04/20 01:27:13;;;;;;;6.15;4.45;;;;;;;10.22;100.00;99569.44;5488525;26;19998;-69
2024/04/20 01:29:39;;;;;;;8.82;5.63;;;;;;;10.22;100.00;99572.00;5489000;26;20009;-76
2024/04/20 01:32:05;;;;;;;7.65;4.88;;;;;;;10.12;100.00;99571.78;5455446;26;20025;-69
2024/04/20 01:34:31;;;;;;;7.03;4.78;;;;;;;10.20;100.00;99567.72;5488940;26;19994;-72
2024/04/20 01:36:56;;;;;;;6.55;5.05;;;;;;;10.19;100.00;99558.22;5488480;26;20006;-71
2024/04/20 01:39:22;;;;;;;9.35;5.13;;;;;;;10.24;100.00;99567.75;5489572;26;20008;-69
2024/04/20 01:41:50;;;;;;;6.97;4.57;;;;;;;10.25;100.00;99574.69;5487829;26;19997;-70
2024/04/20 01:44:16;;;;;;;7.47;5.18;;;;;;;10.16;100.00;99571.03;5488750;26;20010;-69
2024/04/20 01:46:41;;;;;;;6.20;4.82;;;;;;;10.13;100.00;99573.53;5487969;26;20087;-69
2024/04/20 01:49:07;;;;;;;5.97;4.40;;;;;;;10.30;100.00;99598.88;5488168;26;20032;-75
2024/04/20 01:51:33;;;;;;;6.65;4.78;;;;;;;10.41;100.00;99617.22;5487902;26;20429;-74
2024/04/20 01:53:59;;;;;;;6.38;4.10;;;;;;;10.43;100.00;99631.91;5488724;26;20030;-71
2024/04/20 01:56:24;;;;;;;6.85;4.65;;;;;;;10.47;100.00;99615.66;5485761;26;19994;-73
2024/04/20 01:58:50;;;;;;;12.57;5.45;;;;;;;10.42;100.00;99609.50;5488242;26;20668;-75
2024/04/20 02:01:15;;;;;;;13.95;5.60;;;;;;;10.15;100.00;99551.22;5488626;26;20009;-70
2024/04/20 02:03:41;;;;;;;9.80;4.32;;;;;;;10.74;100.00;99639.47;5488399;26;20329;-76
2024/04/20 02:06:06;;;;;;;17.23;5.85;;;;;;;10.76;100.00;99632.66;5488246;26;20022;-72
2024/04/20 02:08:32;;;;;;;10.13;4.93;;;;;;;10.81;100.00;99643.94;5488623;26;20037;-70
2024/04/20 02:10:57;;;;;;;8.73;4.45;;;;;;;10.64;100.00;99626.38;5451364;26;20033;-71
2024/04/20 02:13:23;;;;;;;5.30;3.40;;;;;;;10.65;100.00;99628.13;5476378;26;19998;-70
2024/04/20 02:15:48;;;;;;;6.00;4.10;;;;;;;10.65;100.00;99622.06;5489007;26;20038;-70
2024/04/20 02:18:15;;;;;;;5.20;3.88;;;;;;;10.59;100.00;99620.25;5488625;26;20017;-74
2024/04/20 02:20:41;;;;;;;5.88;3.88;;;;;;;10.42;100.00;99601.78;5488087;26;20006;-71
2024/04/20 02:23:07;;;;;;;6.35;3.83;;;;;;;10.50;100.00;99622.59;5487886;26;20078;-72
2024/04/20 02:25:32;;;;;;;6.20;3.85;;;;;;;10.48;100.00;99626.84;5488043;26;19998;-74
2024/04/20 02:27:58;;;;;;;5.68;3.92;;;;;;;10.46;100.00;99631.97;5488236;26;20364;-69
2024/04/20 02:30:24;;;;;;;6.15;4.05;;;;;;;10.18;100.00;99579.69;5487851;26;20074;-72
2024/04/20 02:32:50;;;;;;;8.15;4.00;;;;;;;10.28;100.00;99603.09;5488391;26;20020;-70
2024/04/20 02:35:16;;;;;;;7.78;3.97;;;;;;;10.38;100.00;99622.28;5487728;26;19998;-70
2024/04/20 02:37:41;;;;;;;6.15;4.18;;;;;;;10.31;100.00;99618.69;5454821;26;19998;-69
2024/04/20 02:40:07;;;;;;;6.78;4.20;;;;;;;10.32;100.00;99618.72;5487893;26;19998;-72
2024/04/20 02:42:33;;;;;;;7.68;4.00;;;;;;;10.08;100.00;99585.47;5488439;26;20069;-72
2024/04/20 02:45:00;;;;;;;5.00;3.90;;;;;;;10.26;100.00;99613.41;5487241;26;19998;-72
2024/04/20 02:47:26;;;;;;;5.00;3.72;;;;;;;10.24;100.00;99611.63;5487695;26;19998;-71
2024/04/20 02:49:52;;;;;;;5.72;4.20;;;;;;;10.28;100.00;99618.59;5454545;26;19998;-71
2024/04/20 02:52:18;;;;;;;5.55;4.20;;;;;;;9.95;100.00;99581.69;5488058;26;20332;-71
2024/04/20 02:54:44;;;;;;;6.03;4.05;;;;;;;10.23;100.00;99622.75;5486053;26;19994;-70
2024/04/20 02:57:10;;;;;;;5.45;4.35;;;;;;;10.16;100.00;99620.03;5486640;26;20448;-69
2024/04/20 02:59:35;;;;;;;5.47;4.13;;;;;;;10.13;100.00;99612.22;5487066;26;19998;-70
2024/04/20 03:02:01;;;;;;;6.18;4.47;;;;;;;10.12;100.00;99610.47;5487162;26;20042;-71
2024/04/20 03:04:27;;;;;;;5.95;4.47;;;;;;;10.05;100.00;99608.56;5486938;26;20082;-74
2024/04/20 03:06:52;;;;;;;5.78;3.55;;;;;;;9.75;100.00;99551.97;5487412;26;20362;-72
2024/04/20 03:09:18;;;;;;;5.28;3.53;;;;;;;9.93;100.00;99587.63;5487295;26;20066;-74
2024/04/20 03:11:43;;;;;;;7.72;3.80;;;;;;;10.02;100.00;99611.09;5487645;26;20035;-70
2024/04/20 03:14:09;;;;;;;11.23;3.83;;;;;;;9.95;100.00;99611.78;5486965;26;19994;-69
2024/04/20 03:16:34;;;;;;;7.40;3.70;;;;;;;9.91;100.00;99615.09;5487157;26;19994;-74
2024/04/20 03:19:00;;;;;;;6.28;3.78;;;;;;;9.57;100.00;99567.81;5486932;26;20013;-73
2024/04/20 03:21:25;;;;;;;5.20;3.30;;;;;;;9.51;100.00;99573.69;5484985;26;19994;-70
2024/04/20 03:23:51;;;;;;;7.43;3.97;;;;;;;9.59;100.00;99607.38;5487500;26;20052;-73
2024/04/20 03:26:16;;;;;;;5.38;3.80;;;;;;;9.56;100.00;99610.75;5487661;26;20066;-69
2024/04/20 03:28:42;;;;;;;5.35;4.13;;;;;;;9.52;100.00;99603.75;5484889;26;20761;-71
2024/04/20 03:31:07;;;;;;;5.47;4.20;;;;;;;9.37;100.00;99575.88;5487262;26;19994;-75
2024/04/20 03:33:35;;;;;;;7.15;4.10;;;;;;;9.47;100.00;99595.94;5486679;26;19998;-70
2024/04/20 03:36:00;;;;;;;5.55;4.18;;;;;;;9.43;100.00;99593.22;5487353;26;19994;-72
2024/04/20 03:38:27;;;;;;;5.72;4.50;;;;;;;9.35;100.00;99593.88;5486405;26;20796;-70
2024/04/20 03:40:53;;;;;;;7.35;4.53;;;;;;;9.44;100.00;99600.13;5486826;26;20006;-69
2024/04/20 03:43:20;;;;;;;10.13;5.15;;;;;;;9.37;100.00;99589.66;5487068;26;20004;-69
2024/04/20 03:45:54;;;;;;;7.97;5.28;;;;;;;9.36;100.00;99600.78;5487047;26;20033;-70
2024/04/20 03:48:24;;;;;;;7.70;4.78;;;;;;;9.37;100.00;99599.94;5486726;26;20002;-72
2024/04/20 03:50:57;;;;;;;6.97;4.88;;;;;;;9.37;100.00;99601.63;5486605;26;20014;-71
2024/04/20 03:53:23;;;;;;;6.93;5.30;;;;;;;9.36;100.00;99611.06;5462937;26;20083;-70
2024/04/20 03:55:49;;;;;;;6.93;5.10;;;;;;;9.42;100.00;99618.13;5464473;26;20043;-72
2024/04/20 03:58:16;;;;;;;6.32;4.95;;;;;;;9.39;100.00;99606.03;5483783;26;20013;-72
2024/04/20 04:00:41;;;;;;;6.38;4.90;;;;;;;9.43;100.00;99616.41;5429125;26;20075;-73
2024/04/20 04:03:14;;;;;;;9.00;5.93;;;;;;;9.48;100.00;99620.88;5436297;26;20039;-73
2024/04/20 04:05:41;;;;;;;7.53;4.90;;;;;;;9.50;100.00;99610.59;5469767;26;20010;-72
2024/04/20 04:08:06;;;;;;;6.45;4.72;;;;;;;9.54;100.00;99603.00;5469959;26;20002;-73
2024/04/20 04:10:31;;;;;;;8.70;4.88;;;;;;;9.55;100.00;99602.13;5486792;26;20017;-71
2024/04/20 04:12:59;;;;;;;7.38;4.75;;;;;;;9.58;100.00;99600.47;5462656;26;20405;-69
2024/04/20 04:15:25;;;;;;;6.30;4.82;;;;;;;9.48;100.00;99581.31;5486592;26;19998;-69
2024/04/20 04:17:50;;;;;;;7.72;5.57;;;;;;;9.52;100.00;99586.63;5486869;26;20017;-73
2024/04/20 04:20:16;;;;;;;6.63;5.03;;;;;;;9.62;100.00;99584.25;5485997;26;19998;-72
2024/04/20 04:22:41;;;;;;;8.65;4.85;;;;;;;9.66;100.00;99573.22;5483256;26;20042;-72
2024/04/20 04:25:07;;;;;;;7.35;4.90;;;;;;;9.27;100.00;99514.66;5483118;26;20745;-72
2024/04/20 04:27:34;;;;;;;5.97;4.55;;;;;;;9.38;100.00;99550.19;5422275;26;20099;-71
2024/04/20 04:29:59;;;;;;;7.22;4.75;;;;;;;9.47;100.00;99561.53;5482889;26;19994;-71
2024/04/20 04:32:25;;;;;;;8.35;4.50;;;;;;;9.43;100.00;99545.13;5482987;26;20535;-74
2024/04/20 04:34:51;;;;;;;6.32;4.43;;;;;;;9.55;100.00;99549.75;5483161;26;20013;-73
2024/04/20 04:37:17;;;;;;;7.88;5.07;;;;;;;9.43;100.00;99545.13;5482571;26;20066;-74
2024/04/20 04:39:43;;;;;;;8.80;5.05;;;;;;;9.45;100.00;99542.63;5421719;26;20041;-73
2024/04/20 04:42:09;;;;;;;6.35;4.57;;;;;;;9.43;100.00;99539.97;5452527;26;20012;-69
2024/04/20 04:44:37;;;;;;;7.85;5.38;;;;;;;9.45;100.00;99547.75;5482769;26;20448;-69
2024/04/20 04:47:05;;;;;;;6.50;4.90;;;;;;;9.52;100.00;99547.97;5483077;26;19997;-73
2024/04/20 04:49:31;;;;;;;7.53;4.87;;;;;;;9.60;100.00;99544.72;5482702;26;20030;-69
2024/04/20 04:51:57;;;;;;;7.70;5.15;;;;;;;9.67;100.00;99539.75;5483379;26;20374;-70
2024/04/20 04:54:22;;;;;;;7.32;5.35;;;;;;;9.69;100.00;99530.38;5482677;26;19994;-69
2024/04/20 04:56:49;;;;;;;7.68;5.38;;;;;;;9.61;100.00;99508.66;5483103;26;19994;-71
2024/04/20 04:59:17;;;;;;;7.60;5.20;;;;;;;9.68;100.00;99507.09;5483267;26;20002;-70
2024/04/20 05:01:43;;;;;;;7.35;5.47;;;;;;;9.75;100.00;99519.31;5486545;26;20397;-69
2024/04/20 05:04:10;;;;;;;8.05;4.90;;;;;;;9.80;100.00;99534.91;5485736;26;20009;-71
2024/04/20 05:06:36;;;;;;;7.80;5.20;;;;;;;9.93;100.00;99546.38;5484241;26;20340;-69
2024/04/20 05:09:01;;;;;;;8.35;5.53;;;;;;;9.97;100.00;99553.34;5485661;26;19998;-70
2024/04/20 05:11:27;;;;;;;12.88;4.95;;;;;;;9.96;100.00;99539.59;5485756;26;20009;-70
2024/04/20 05:13:52;;;;;;;10.55;5.13;;;;;;;10.05;100.00;99549.25;5485287;26;20491;-71
2024/04/20 05:16:17;;;;;;;7.57;5.78;;;;;;;10.07;100.00;99550.19;5484543;26;19997;-72
2024/04/20 05:18:43;;;;;;;10.43;5.38;;;;;;;10.04;100.00;99548.41;5486292;26;19995;-69
2024/04/20 05:21:08;;;;;;;10.57;5.78;;;;;;;9.81;100.00;99509.16;5488358;26;19990;-73
2024/04/20 05:23:34;;;;;;;8.30;5.10;;;;;;;10.02;100.00;99551.78;5490166;26;19990;-68
2024/04/20 05:26:00;;;;;;;10.93;6.50;;;;;;;9.74;100.00;99515.00;5489887;26;19990;-69
2024/04/20 05:28:25;;;;;;;11.10;6.32;;;;;;;10.01;100.00;99556.06;5456829;26;20331;-68
2024/04/20 05:30:51;;;;;;;10.32;6.07;;;;;;;10.14;100.00;99567.56;5490226;26;19994;-72
2024/04/20 05:33:16;;;;;;;8.13;5.75;;;;;;;9.98;100.00;99534.47;5487123;26;20416;-70
2024/04/20 05:35:42;;;;;;;5.93;4.85;;;;;;;10.25;100.00;99564.34;5490002;26;19998;-70
2024/04/20 05:38:07;;;;;;;9.48;4.97;;;;;;;10.08;100.00;99527.84;5489972;26;20005;-73
2024/04/20 05:40:37;;;;;;;6.68;5.45;;;;;;;10.37;100.00;99577.56;5489740;26;19994;-72
2024/04/20 05:43:04;;;;;;;7.50;4.65;;;;;;;10.46;100.00;99580.34;5489998;26;20447;-69
2024/04/20 05:45:29;;;;;;;8.77;4.75;;;;;;;10.58;100.00;99576.31;5486961;26;19990;-69
2024/04/20 05:47:55;;;;;;;7.35;4.47;;;;;;;10.64;100.00;99584.19;5489913;26;20005;-69
2024/04/20 05:50:20;;;;;;;8.13;4.07;;;;;;;10.48;100.00;99547.72;5489813;26;19990;-69
2024/04/20 05:52:46;;;;;;;6.57;4.18;;;;;;;10.75;100.00;99587.00;5489697;26;20468;-73
2024/04/20 05:55:11;;;;;;;6.63;4.38;;;;;;;10.89;100.00;99605.38;5486937;26;19990;-69
2024/04/20 05:57:37;;;;;;;7.90;4.60;;;;;;;10.93;100.00;99613.25;5489891;26;20022;-72
2024/04/20 06:00:05;;;;;;;5.38;4.18;;;;;;;10.88;100.00;99591.63;5489689;26;20002;-74
2024/04/20 06:02:33;;;;;;;5.53;3.90;;;;;;;10.99;100.00;99608.22;5486797;26;20014;-70
2024/04/20 06:05:01;;;;;;;7.18;4.18;;;;;;;11.02;100.00;99617.72;5489494;26;19994;-69
2024/04/20 06:07:29;;;;;;;7.07;4.18;;;;;;;11.16;100.00;99624.06;5489263;26;20005;-74
2024/04/20 06:09:54;;;;;;;8.98;4.38;;;;;;;11.10;100.00;99613.59;5489483;26;20329;-70
2024/04/20 06:12:20;;;;;;;6.18;4.10;;;;;;;11.25;100.00;99627.66;5489328;26;20000;-71
2024/04/20 06:14:49;;;;;;;7.13;3.50;;;;;;;11.30;99.57;99637.28;5428519;26;20003;-71
2024/04/20 06:17:15;;;;;;;6.53;3.50;;;;;;;11.22;100.00;99632.78;5444675;26;20447;-69
2024/04/20 06:19:41;;;;;;;6.75;3.45;;;;;;;11.31;98.53;99631.28;5442154;26;20006;-71
2024/04/20 06:22:07;;;;;;;7.05;3.40;;;;;;;11.38;98.65;99631.41;5461503;26;19994;-70
2024/04/20 06:24:35;;;;;;;4.70;3.03;;;;;;;11.43;97.80;99617.69;5441075;26;20011;-70
2024/04/20 06:27:01;;;;;;;5.65;3.97;;;;;;;11.45;99.09;99620.31;5439622;26;20406;-69
2024/04/20 06:29:26;;;;;;;6.32;3.80;;;;;;;11.13;100.00;99574.06;5435027;26;19999;-72
2024/04/20 06:31:52;;;;;;;5.30;3.35;;;;;;;11.43;100.00;99609.09;5437527;26;20329;-69
2024/04/20 06:34:18;;;;;;;6.97;3.78;;;;;;;11.30;99.74;99582.13;5441213;26;20445;-70
2024/04/20 06:36:43;;;;;;;5.18;3.40;;;;;;;11.46;100.00;99606.56;5439605;26;20082;-76
2024/04/20 06:39:10;;;;;;;8.13;3.88;;;;;;;11.48;100.00;99602.28;5439216;26;19996;-71
2024/04/20 06:41:37;;;;;;;5.45;3.63;;;;;;;11.47;100.00;99601.41;5371594;26;20010;-73
2024/04/20 06:44:03;;;;;;;8.20;3.92;;;;;;;11.52;100.00;99598.06;5434616;26;20047;-71
2024/04/20 06:46:29;;;;;;;9.32;4.10;;;;;;;11.55;98.96;99604.16;5441033;26;20422;-70
2024/04/20 06:48:57;;;;;;;7.10;4.10;;;;;;;11.55;98.78;99580.00;5431425;26;20003;-72
2024/04/20 06:51:24;;;;;;;7.28;4.47;;;;;;;11.68;98.81;99600.06;5430846;26;19995;-75
2024/04/20 06:53:49;;;;;;;7.70;3.80;;;;;;;11.74;98.62;99604.47;5438731;26;20043;-70
2024/04/20 06:56:16;;;;;;;6.38;4.15;;;;;;;11.84;97.90;99605.50;5428305;26;20565;-73
2024/04/20 06:58:42;;;;;;;5.70;3.72;;;;;;;11.78;97.43;99598.53;5423613;26;20322;-70
2024/04/20 07:01:09;;;;;;;5.35;3.50;;;;;;;11.88;96.63;99608.19;5436262;26;20003;-71
2024/04/20 07:03:35;;;;;;;4.47;3.28;;;;;;;11.90;97.68;99611.69;5434443;26;20005;-69
2024/04/20 07:06:00;;;;;;;5.07;3.13;;;;;;;11.80;94.07;99578.72;5416589;26;19992;-71
2024/04/20 07:08:28;;;;;;;6.10;3.45;;;;;;;12.05;95.60;99610.22;5436461;26;20785;-72
2024/04/20 07:10:55;;;;;;;6.70;3.28;;;;;;;12.17;91.33;99622.50;5433963;26;19999;-73
2024/04/20 07:13:21;;;;;;;4.20;2.65;;;;;;;12.21;90.72;99632.06;5417994;26;19996;-75
2024/04/20 07:15:50;;;;;;;6.80;2.78;;;;;;;12.20;91.24;99609.59;5431970;26;19995;-70
2024/04/20 07:18:16;;;;;;;5.10;3.10;;;;;;;12.39;89.49;99626.34;5440318;26;19995;-71
2024/04/20 07:20:41;;;;;;;6.28;2.80;;;;;;;12.41;89.75;99625.50;5428506;26;20007;-74
2024/04/20 07:23:07;;;;;;;5.00;3.13;;;;;;;12.43;88.57;99621.19;5429471;26;20446;-72
2024/04/20 07:25:32;;;;;;;5.47;2.92;;;;;;;12.29;88.07;99594.25;5438740;26;20080;-76
2024/04/20 07:27:58;;;;;;;6.45;2.90;;;;;;;12.50;88.91;99631.66;5433518;26;20010;-70
2024/04/20 07:30:23;;;;;;;4.05;2.70;;;;;;;12.29;87.91;99573.53;5431870;26;20001;-71
2024/04/20 07:32:50;;;;;;;7.15;3.28;;;;;;;12.57;90.35;99616.25;5434550;26;19991;-73
2024/04/20 07:35:17;;;;;;;4.72;2.88;;;;;;;12.61;89.41;99617.16;5431123;26;20001;-70
2024/04/20 07:37:43;;;;;;;5.07;2.60;;;;;;;12.55;84.62;99604.16;5437905;26;20017;-74
2024/04/20 07:40:10;;;;;;;13.13;5.07;;;;;;;12.63;87.36;99599.94;5434376;26;19998;-74
2024/04/20 07:42:36;;;;;;;4.70;2.50;;;;;;;12.73;84.82;99606.13;5430084;26;19999;-74
2024/04/20 07:45:02;;;;;;;7.57;2.60;;;;;;;12.72;86.46;99606.97;5425955;26;20011;-71
2024/04/20 07:47:27;;;;;;;4.88;2.63;;;;;;;12.84;87.25;99604.53;5434936;26;20081;-72
2024/04/20 07:49:53;;;;;;;5.20;2.55;;;;;;;12.82;85.29;99595.88;5432180;26;19994;-75
2024/04/20 07:52:19;;;;;;;5.30;2.40;;;;;;;12.73;82.29;99587.97;5433510;26;20004;-72
2024/04/20 07:54:45;;;;;;;3.72;2.42;;;;;;;12.79;85.36;99598.44;5433066;26;19995;-71
2024/04/20 07:57:11;;;;;;;4.97;2.55;;;;;;;12.73;86.02;99575.88;5430068;26;19999;-70
2024/04/20 07:59:39;;;;;;;7.55;2.72;;;;;;;12.88;85.83;99584.72;5429324;26;20003;-73
2024/04/20 08:02:09;;;;;;;3.28;2.40;;;;;;;12.52;85.41;99508.28;5431525;26;19996;-72
2024/04/20 08:04:35;;;;;;;4.28;2.33;;;;;;;12.84;83.69;99563.09;5432437;26;20543;-73
2024/04/20 08:07:01;;;;;;;3.30;2.40;;;;;;;12.98;83.73;99590.91;5435522;26;20013;-71
2024/04/20 08:09:27;;;;;;;5.45;2.40;;;;;;;12.95;83.43;99578.78;5435470;26;20411;-72
2024/04/20 08:11:52;;;;;;;4.13;2.38;;;;;;;12.81;82.85;99552.72;5431028;26;19996;-72
2024/04/20 08:14:18;;;;;;;3.53;2.00;;;;;;;13.14;84.09;99589.38;5421867;26;20039;-69
2024/04/20 08:16:44;;;;;;;5.13;2.20;;;;;;;13.25;83.68;99604.19;5432670;26;19995;-69
2024/04/20 08:19:10;;;;;;;4.38;2.00;;;;;;;13.31;82.57;99600.81;5434972;26;20092;-74
2024/04/20 08:21:36;;;;;;;3.80;2.10;;;;;;;13.24;82.27;99586.03;5425777;26;19995;-71
2024/04/20 08:24:02;;;;;;;2.47;1.73;;;;;;;13.31;81.43;99602.53;5434360;26;20023;-71
2024/04/20 08:26:30;;;;;;;4.60;1.90;;;;;;;13.18;81.58;99588.56;5431457;26;20010;-70
2024/04/20 08:28:56;;;;;;;3.65;2.28;;;;;;;13.07;82.20;99558.22;5421526;26;20003;-72
2024/04/20 08:31:21;;;;;;;4.07;2.00;;;;;;;13.31;82.25;99593.06;5432539;26;20023;-76
2024/04/20 08:33:47;;;;;;;6.60;2.22;;;;;;;13.43;79.53;99616.56;5419219;26;20527;-71
2024/04/20 08:36:12;;;;;;;2.65;1.90;;;;;;;13.23;82.21;99567.03;5434775;26;19995;-73
2024/04/20 08:38:38;;;;;;;4.50;2.05;;;;;;;13.35;79.92;99589.63;5430276;26;20555;-71
2024/04/20 08:41:05;;;;;;;3.75;1.80;;;;;;;13.51;81.12;99600.22;5425878;26;20010;-71
2024/04/20 08:43:32;;;;;;;5.95;1.88;;;;;;;13.23;79.23;99577.41;5422879;26;19999;-72
2024/04/20 08:46:05;;;;;;;3.70;1.75;;;;;;;13.41;79.12;99602.69;5432960;26;20071;-71
2024/04/20 08:48:31;;;;;;;3.80;1.85;;;;;;;13.35;79.66;99584.44;5431391;26;19994;-72
2024/04/20 08:51:04;;;;;;;3.58;2.03;;;;;;;13.27;81.35;99573.09;5421836;26;20014;-72
2024/04/20 08:53:34;;;;;;;4.38;2.00;;;;;;;13.47;80.93;99590.66;5431759;26;20717;-71
2024/04/20 08:56:00;;;;;;;5.78;2.10;;;;;;;13.47;81.60;99595.84;5400520;26;20062;-75
2024/04/20 08:58:26;;;;;;;4.70;2.47;;;;;;;13.43;79.36;99575.06;5437487;26;20393;-73
2024/04/20 09:01:00;;;;;;;7.40;2.55;;;;;;;13.41;79.45;99576.78;5433292;26;20009;-71
2024/04/20 09:03:26;;;;;;;4.30;2.45;;;;;;;13.25;79.65;99554.09;5434572;26;20006;-72
2024/04/20 09:05:55;;;;;;;7.05;2.20;;;;;;;13.29;78.20;99547.22;5433900;26;20002;-70
2024/04/20 09:08:27;;;;;;;2.88;1.70;;;;;;;13.43;78.28;99575.06;5429037;26;19999;-72
2024/04/20 09:10:53;;;;;;;8.88;2.40;;;;;;;13.54;82.21;99582.94;5427142;26;20429;-71
2024/04/20 09:13:19;;;;;;;5.53;2.20;;;;;;;13.38;80.50;99555.13;5433856;26;20057;-71
2024/04/20 09:15:46;;;;;;;6.13;2.00;;;;;;;13.54;78.79;99584.69;5437309;26;20007;-73
2024/04/20 09:18:11;;;;;;;7.95;3.13;;;;;;;13.55;79.41;99579.50;5399983;26;19992;-71
2024/04/20 09:20:37;;;;;;;5.75;2.03;;;;;;;13.66;78.29;99602.97;5441218;26;19999;-72
2024/04/20 09:23:07;;;;;;;4.82;1.73;;;;;;;13.75;77.76;99591.81;5435376;26;19995;-71
2024/04/20 09:25:33;;;;;;;;;;;;;;;13.76;79.04;99596.16;5438106;26;20009;-74
2024/04/20 09:28:00;;;;;;;7.25;2.28;;;;;;;13.54;77.47;99556.16;5464221;26;19925;-72
2024/04/20 09:30:28;;;;;;;11.25;2.20;;;;;;;13.61;75.18;99563.16;5442048;26;20010;-70
2024/04/20 09:32:53;;;;;;;2.00;1.58;;;;;;;13.76;72.85;99593.56;5433707;26;20322;-70
2024/04/20 09:35:21;;;;;;;4.03;1.90;;;;;;;13.77;74.53;99597.91;5434342;26;20000;-72
2024/04/20 09:37:48;;;;;;;5.55;1.77;;;;;;;13.71;74.95;99598.69;5429313;26;20043;-70
2024/04/20 09:40:14;;;;;;;7.28;2.05;;;;;;;13.69;76.02;99586.56;5438385;26;19999;-71
2024/04/20 09:42:42;;;;;;;2.58;1.70;;;;;;;13.74;73.30;99590.97;5437138;26;19995;-70
2024/04/20 09:45:10;;;;;;;3.67;1.67;;;;;;;13.72;72.96;99584.88;5441814;26;20426;-72
2024/04/20 09:47:36;;;;;;;3.90;1.63;;;;;;;13.80;73.74;99576.31;5433981;26;20096;-71
2024/04/20 09:50:12;;;;;;;1.63;1.40;;;;;;;13.82;70.84;99597.91;5437508;26;19995;-70
2024/04/20 09:52:49;;;;;;;2.40;1.60;;;;;;;13.85;71.88;99583.25;5434254;26;20056;-71
2024/04/20 09:55:35;;;;;;;2.47;1.63;;;;;;;13.87;69.90;99572.91;5437639;26;19999;-71
2024/04/20 09:58:04;;;;;;;2.80;1.50;;;;;;;13.64;68.74;99538.97;5416395;26;20015;-74
2024/04/20 10:00:35;;;;;;;5.82;1.70;;;;;;;13.91;71.26;99572.94;5419145;26;20013;-70
2024/04/20 10:03:05;;;;;;;4.47;1.65;;;;;;;13.67;70.10;99521.72;5448024;26;20005;-75
2024/04/20 10:05:33;;;;;;;;;;;;;;;13.97;72.71;99561.75;5431710;26;20414;-76
2024/04/20 10:08:00;;;;;;;2.22;1.50;;;;;;;13.98;71.98;99560.00;5437099;26;19932;-70
2024/04/20 10:10:27;;;;;;;5.32;1.65;;;;;;;13.96;67.07;99557.41;5436915;26;20009;-71
2024/04/20 10:13:03;;;;;;;5.07;1.85;;;;;;;13.95;67.97;99554.81;5429247;26;19995;-76
2024/04/20 10:15:33;;;;;;;4.07;1.83;;;;;;;13.99;67.83;99553.97;5421925;26;20093;-71
2024/04/20 10:18:00;;;;;;;3.35;1.85;;;;;;;13.94;69.77;99545.28;5420967;26;20028;-73
2024/04/20 10:20:40;;;;;;;5.32;1.88;;;;;;;13.82;69.43;99522.69;5429287;26;20014;-71
2024/04/20 10:23:17;;;;;;;5.60;2.40;;;;;;;14.06;69.88;99555.75;5420939;26;20003;-75
2024/04/20 10:25:48;;;;;;;7.18;2.20;;;;;;;14.00;70.20;99558.31;5436786;26;20012;-73
2024/04/20 10:28:35;;;;;;;3.10;1.58;;;;;;;14.14;68.42;99555.81;5431180;26;19995;-72
2024/04/20 10:31:02;;;;;;;5.15;1.92;;;;;;;14.14;69.26;99553.22;5440915;26;20455;-71
2024/04/20 10:33:34;;;;;;;3.50;1.50;;;;;;;14.08;69.51;99539.34;5412733;26;20061;-72
2024/04/20 10:36:02;;;;;;;2.17;1.58;;;;;;;14.26;71.25;99552.47;5437528;26;20011;-75
2024/04/20 10:38:31;;;;;;;4.63;1.92;;;;;;;14.24;71.32;99539.44;5412039;26;20000;-72
2024/04/20 10:40:57;;;;;;;3.60;1.80;;;;;;;14.10;70.18;99496.97;5440316;26;20075;-77
2024/04/20 10:43:25;;;;;;;3.47;1.90;;;;;;;14.39;71.45;99549.94;5433382;26;20404;-74
2024/04/20 10:46:09;;;;;;;2.22;1.63;;;;;;;14.46;69.61;99550.84;5433142;26;20010;-78
2024/04/20 10:48:35;;;;;;;3.00;1.63;;;;;;;14.45;68.23;99563.81;5440959;26;20433;-72
2024/04/20 10:51:02;;;;;;;2.65;1.60;;;;;;;14.46;70.33;99550.00;5432809;26;20069;-75
2024/04/20 10:53:28;;;;;;;1.65;1.38;;;;;;;14.50;68.66;99562.97;5432860;26;20005;-72
2024/04/20 10:55:58;;;;;;;2.70;1.50;;;;;;;14.40;68.79;99532.63;5432821;26;19996;-74
2024/04/20 10:58:24;;;;;;;2.35;1.65;;;;;;;14.56;68.12;99573.41;5427169;26;20018;-75
2024/04/20 11:00:51;;;;;;;3.85;1.80;;;;;;;14.29;68.90;99519.56;5432738;26;20317;-71
2024/04/20 11:03:16;;;;;;;2.40;2.08;;;;;;;14.56;70.16;99554.38;5437980;26;20009;-72
2024/04/20 11:05:58;;;;;;;4.43;1.80;;;;;;;14.66;69.11;99576.13;5438119;26;19992;-74
2024/04/20 11:08:25;;;;;;;4.20;1.98;;;;;;;14.62;68.70;99576.94;5423302;26;19999;-75
2024/04/20 11:11:14;;;;;;;2.60;1.65;;;;;;;14.59;71.24;99562.16;5397322;26;19995;-75
2024/04/20 11:13:41;;;;;;;2.53;1.88;;;;;;;14.64;70.91;99583.88;5402276;26;19991;-75
2024/04/20 11:16:26;;;;;;;2.70;1.88;;;;;;;14.64;71.45;99583.88;5396151;26;19996;-75
2024/04/20 11:18:53;;;;;;;3.80;2.00;;;;;;;14.71;69.77;99590.84;5317571;26;20027;-75
2024/04/20 11:21:39;;;;;;;5.43;1.92;;;;;;;14.76;70.16;99596.09;5311346;26;20006;-76
2024/04/20 11:24:05;;;;;;;2.30;1.90;;;;;;;14.71;68.40;99601.25;5323893;26;20002;-77
2024/04/20 11:26:53;;;;;;;5.30;2.20;;;;;;;14.67;69.90;99591.69;5224270;26;20017;-76
2024/04/20 11:29:21;;;;;;;4.93;2.13;;;;;;;14.72;70.08;99604.72;5351204;26;20096;-74
2024/04/20 11:32:07;;;;;;;2.25;1.70;;;;;;;14.71;68.58;99603.84;5371377;26;19996;-76